Time;durP1;ratioP1;P1;durP2;ratioP2;P2;SDS_P1;SDS_P2;PMS_P1;PMS_P2;Temp;Humidity;BMP_temperature;BMP_pressure;BME280_temperature;BME280_humidity;BME280_pressure;Samples;Min_cycle;Max_cycle;Signal;HPM_P1;HPM_P2
2023/10/31 00:02:14;;;;;;;0.47;0.47;;;;;;;-145.69;61.22;52198.81;5069172;28;20222;-82
2023/10/31 00:04:41;;;;;;;1.27;0.50;;;;;;;-145.69;60.71;52151.28;5075897;28;20206;-82
2023/10/31 00:07:07;;;;;;;3.17;0.45;;;;;;;-145.69;60.68;52139.41;5076881;28;20202;-83
2023/10/31 00:09:34;;;;;;;0.40;0.40;;;;;;;-145.69;60.44;52163.19;5076874;28;20217;-83
2023/10/31 00:12:01;;;;;;;0.47;0.40;;;;;;;-145.69;60.47;52151.28;5076261;28;20203;-82
2023/10/31 00:14:27;;;;;;;0.60;0.60;;;;;;;-145.69;60.53;52173.09;5076754;28;20301;-83
2023/10/31 00:16:55;;;;;;;1.40;0.40;;;;;;;-145.69;60.49;52147.34;5076889;28;20198;-82
2023/10/31 00:19:22;;;;;;;0.87;0.57;;;;;;;-145.69;60.01;52161.19;5076241;28;20231;-82
2023/10/31 00:21:48;;;;;;;0.53;0.43;;;;;;;-145.69;59.88;52175.06;5075962;28;20210;-83
2023/10/31 00:24:15;;;;;;;0.30;0.30;;;;;;;-145.69;59.90;52171.09;5075870;28;20198;-82
2023/10/31 00:26:41;;;;;;;1.03;0.73;;;;;;;-145.69;60.51;52177.03;5076159;28;20234;-82
2023/10/31 00:29:08;;;;;;;1.60;0.63;;;;;;;-145.69;60.47;52147.34;5075580;28;20206;-82
2023/10/31 00:31:35;;;;;;;0.37;0.37;;;;;;;-145.69;59.96;52161.19;5075840;28;20195;-82
2023/10/31 00:34:03;;;;;;;0.50;0.50;;;;;;;-145.69;59.82;52141.41;5075098;28;20199;-82
2023/10/31 00:36:29;;;;;;;1.80;0.53;;;;;;;-145.69;59.98;52175.06;5075573;28;20654;-82
2023/10/31 00:38:56;;;;;;;0.97;0.60;;;;;;;-145.69;59.89;52149.31;5075494;28;20226;-83
2023/10/31 00:41:22;;;;;;;0.47;0.47;;;;;;;-145.69;59.91;52171.09;5075539;28;20573;-83
2023/10/31 00:43:49;;;;;;;2.47;0.60;;;;;;;-145.69;59.68;52151.28;5075327;28;20242;-83
2023/10/31 00:46:18;;;;;;;1.27;0.65;;;;;;;-145.69;59.67;52139.41;5075310;28;20202;-82
2023/10/31 00:48:45;;;;;;;1.37;0.60;;;;;;;-145.69;59.96;52179.03;5075372;28;20711;-83
2023/10/31 00:51:13;;;;;;;0.50;0.50;;;;;;;-145.69;60.36;52153.28;5075232;28;20206;-81
2023/10/31 00:53:39;;;;;;;0.50;0.50;;;;;;;-145.69;60.44;52163.19;5074125;28;20203;-83
2023/10/31 00:56:07;;;;;;;1.20;0.60;;;;;;;-145.69;60.56;52186.94;5075194;28;20293;-82
2023/10/31 00:58:33;;;;;;;0.53;0.40;;;;;;;-145.69;60.37;52184.97;5075336;28;20203;-82
2023/10/31 01:01:02;;;;;;;2.00;0.50;;;;;;;-145.69;60.51;52131.50;5075048;28;20293;-82
2023/10/31 01:03:29;;;;;;;0.60;0.60;;;;;;;-145.69;60.27;52194.88;5075308;28;20213;-82
2023/10/31 01:05:55;;;;;;;0.40;0.40;;;;;;;-145.69;60.64;52179.03;5074853;28;20203;-83
2023/10/31 01:08:23;;;;;;;0.90;0.80;;;;;;;-145.69;60.41;52200.81;5075027;28;20203;-82
2023/10/31 01:10:50;;;;;;;0.50;0.33;;;;;;;-145.69;60.49;52179.03;5077117;28;20658;-82
2023/10/31 01:13:16;;;;;;;0.70;0.70;;;;;;;-145.69;60.21;52143.38;5095206;28;20201;-82
2023/10/31 01:15:43;;;;;;;2.23;0.60;;;;;;;-145.69;59.56;52143.38;5095339;28;20205;-82
2023/10/31 01:18:09;;;;;;;2.00;0.60;;;;;;;-145.69;59.97;52157.25;5094965;28;20657;-81
2023/10/31 01:20:36;;;;;;;0.82;0.50;;;;;;;-145.69;59.51;52157.25;5094880;28;20230;-82
2023/10/31 01:23:02;;;;;;;0.73;0.60;;;;;;;-145.69;59.90;52151.28;5094425;28;20198;-81
2023/10/31 01:25:30;;;;;;;0.65;0.50;;;;;;;-145.69;59.04;52186.94;5094955;28;20202;-81
2023/10/31 01:27:58;;;;;;;0.60;0.50;;;;;;;-145.69;59.27;52171.09;5094991;28;20205;-81
2023/10/31 01:30:25;;;;;;;0.70;0.43;;;;;;;-145.69;58.82;52179.03;5094713;28;20205;-82
2023/10/31 01:32:52;;;;;;;1.90;0.60;;;;;;;-145.69;59.13;52177.03;5094863;28;20530;-83
2023/10/31 01:35:18;;;;;;;0.50;0.50;;;;;;;-145.69;59.01;52155.25;5094610;28;20437;-82
2023/10/31 01:37:45;;;;;;;1.07;0.70;;;;;;;-145.69;59.21;52184.97;5094565;28;20293;-81
2023/10/31 01:40:16;;;;;;;0.60;0.40;;;;;;;-145.69;58.84;52163.19;5094501;28;20226;-82
2023/10/31 01:42:44;;;;;;;1.53;0.77;;;;;;;-145.69;59.29;52177.03;5094498;28;20233;-83
2023/10/31 01:45:10;;;;;;;1.93;0.70;;;;;;;-145.69;59.26;52175.06;5094733;28;20198;-82
2023/10/31 01:47:37;;;;;;;2.10;0.50;;;;;;;-145.69;59.14;52163.19;5094639;28;20206;-81
2023/10/31 01:50:05;;;;;;;2.63;0.60;;;;;;;-145.69;58.56;52123.56;5094409;28;20273;-81
2023/10/31 01:52:32;;;;;;;0.50;0.50;;;;;;;-145.69;59.11;52175.06;5094033;28;20202;-81
2023/10/31 01:54:59;;;;;;;0.70;0.60;;;;;;;-145.69;58.98;52171.09;5088006;28;20194;-82
2023/10/31 01:57:26;;;;;;;0.50;0.50;;;;;;;-145.69;59.07;52145.34;5074294;28;20546;-82
2023/10/31 01:59:54;;;;;;;0.47;0.47;;;;;;;-145.69;58.57;52123.56;5060916;28;20230;-82
2023/10/31 02:02:23;;;;;;;1.23;0.70;;;;;;;-145.69;58.81;52171.09;5066495;28;20201;-83
2023/10/31 02:04:50;;;;;;;0.77;0.40;;;;;;;-145.69;58.16;52177.03;5073617;28;20716;-81
2023/10/31 02:07:17;;;;;;;1.23;0.47;;;;;;;-145.69;58.58;52143.38;5073866;28;20650;-82
2023/10/31 02:09:43;;;;;;;0.87;0.60;;;;;;;-145.69;58.17;52143.38;5073728;28;20662;-83
2023/10/31 02:12:10;;;;;;;0.70;0.70;;;;;;;-145.69;57.99;52163.19;5073781;28;20206;-83
2023/10/31 02:14:36;;;;;;;0.95;0.52;;;;;;;-145.69;58.06;52147.34;5073680;28;20203;-82
2023/10/31 02:17:04;;;;;;;0.40;0.40;;;;;;;-145.69;58.18;52175.06;5073959;28;20199;-83
2023/10/31 02:19:31;;;;;;;0.60;0.60;;;;;;;-145.69;57.93;52159.22;5073426;28;20222;-83
2023/10/31 02:21:59;;;;;;;0.73;0.70;;;;;;;-145.69;57.89;52171.09;5073684;28;20556;-83
2023/10/31 02:24:26;;;;;;;0.60;0.60;;;;;;;-145.69;58.41;52163.19;5075791;28;20217;-82
2023/10/31 02:26:52;;;;;;;0.43;0.43;;;;;;;-145.69;58.67;52210.72;5073763;28;20256;-82
2023/10/31 02:29:22;;;;;;;1.53;0.40;;;;;;;-145.69;58.44;52177.03;5073648;28;20229;-83
2023/10/31 02:31:48;;;;;;;1.00;0.50;;;;;;;-145.69;58.31;52173.09;5073665;28;20258;-82
2023/10/31 02:34:15;;;;;;;0.93;0.73;;;;;;;-145.69;59.35;52190.91;5073268;28;20198;-83
2023/10/31 02:36:41;;;;;;;0.57;0.57;;;;;;;-145.69;59.08;52173.09;5073316;28;20547;-83
2023/10/31 02:39:10;;;;;;;0.50;0.43;;;;;;;-145.69;59.74;52167.13;5073128;28;20203;-83
2023/10/31 02:41:36;;;;;;;1.33;0.50;;;;;;;-145.69;59.71;52208.72;5073272;28;20203;-82
2023/10/31 02:44:03;;;;;;;0.70;0.50;;;;;;;-145.69;59.63;52212.69;5072980;28;20231;-83
2023/10/31 02:46:32;;;;;;;1.60;0.60;;;;;;;-145.69;59.92;52165.16;5072995;28;20202;-82
2023/10/31 02:48:59;;;;;;;1.63;0.70;;;;;;;-145.69;59.99;52175.06;5073379;28;20202;-82
2023/10/31 02:51:25;;;;;;;5.60;0.60;;;;;;;-145.69;59.42;52186.94;5072816;28;20562;-82
2023/10/31 02:53:52;;;;;;;1.07;0.40;;;;;;;-145.69;59.71;52184.97;5072963;28;20199;-82
2023/10/31 02:56:20;;;;;;;1.83;0.70;;;;;;;-145.69;59.79;52179.03;5073191;28;20210;-81
2023/10/31 02:58:46;;;;;;;0.90;0.60;;;;;;;-145.69;59.81;52175.06;5090244;28;20209;-81
2023/10/31 03:01:13;;;;;;;1.77;0.70;;;;;;;-145.69;59.87;52186.94;5093093;28;20221;-82
2023/10/31 03:03:39;;;;;;;1.00;0.60;;;;;;;-145.69;59.76;52167.13;5093194;28;20198;-82
2023/10/31 03:06:06;;;;;;;0.50;0.50;;;;;;;-145.69;59.99;52155.25;5092960;28;20675;-81
2023/10/31 03:08:33;;;;;;;1.27;0.50;;;;;;;-145.69;60.16;52175.06;5093290;28;20243;-82
2023/10/31 03:10:59;;;;;;;1.33;0.60;;;;;;;-145.69;60.39;52184.97;5093134;28;20205;-82
2023/10/31 03:13:27;;;;;;;1.07;0.60;;;;;;;-145.69;59.84;52163.19;5093235;28;20206;-82
2023/10/31 03:15:54;;;;;;;0.97;0.63;;;;;;;-145.69;60.09;52167.13;5092284;28;20202;-81
2023/10/31 03:18:20;;;;;;;1.37;0.50;;;;;;;-145.69;59.94;52177.03;5093292;28;20572;-82
2023/10/31 03:20:47;;;;;;;0.40;0.40;;;;;;;-145.69;60.11;52155.25;5092869;28;20233;-82
2023/10/31 03:23:14;;;;;;;0.50;0.50;;;;;;;-145.69;59.84;52188.91;5092773;28;20210;-82
2023/10/31 03:25:40;;;;;;;0.80;0.50;;;;;;;-145.69;59.76;52141.41;5076871;28;20206;-82
2023/10/31 03:28:18;;;;;;;2.77;0.60;;;;;;;-145.69;59.39;52179.03;5072658;28;20290;-82
2023/10/31 03:30:46;;;;;;;0.40;0.40;;;;;;;-145.69;59.78;52179.03;5072761;28;20202;-82
2023/10/31 03:33:12;;;;;;;1.60;0.50;;;;;;;-145.69;59.64;52175.06;5072700;28;20203;-82
2023/10/31 03:35:39;;;;;;;1.03;0.40;;;;;;;-145.69;59.52;52161.19;5072696;28;20217;-82
2023/10/31 03:38:05;;;;;;;0.50;0.50;;;;;;;-145.69;59.21;52167.13;5072733;28;20221;-83
2023/10/31 03:40:32;;;;;;;2.43;0.60;;;;;;;-145.69;59.66;52179.03;5072659;28;20230;-82
2023/10/31 03:42:58;;;;;;;1.83;0.57;;;;;;;-145.69;59.19;52186.94;5072402;28;20223;-81
2023/10/31 03:45:28;;;;;;;0.73;0.50;;;;;;;-145.69;59.33;52179.03;5072744;28;20574;-82
2023/10/31 03:47:55;;;;;;;1.17;0.40;;;;;;;-145.69;59.08;52212.69;5072552;28;20289;-82
2023/10/31 03:50:22;;;;;;;1.87;0.60;;;;;;;-145.69;59.67;52186.94;5062252;28;20206;-82
2023/10/31 03:52:49;;;;;;;0.83;0.50;;;;;;;-145.69;59.73;52184.97;5052718;28;20238;-82
2023/10/31 03:55:15;;;;;;;0.60;0.60;;;;;;;-145.69;60.86;52179.03;5052937;28;20203;-82
2023/10/31 03:57:42;;;;;;;0.43;0.40;;;;;;;-145.69;60.59;52161.19;5060784;28;20203;-82
2023/10/31 04:00:12;;;;;;;2.17;0.60;;;;;;;-145.69;60.94;52194.88;5073462;28;20218;-82
2023/10/31 04:02:40;;;;;;;0.63;0.50;;;;;;;-145.69;61.23;52190.91;5073143;28;20198;-82
2023/10/31 04:05:08;;;;;;;0.60;0.60;;;;;;;-145.69;60.86;52169.13;5073324;28;20260;-82
2023/10/31 04:07:35;;;;;;;0.60;0.60;;;;;;;-145.69;60.29;52157.25;5072547;28;20202;-82
2023/10/31 04:10:02;;;;;;;1.07;0.50;;;;;;;-145.69;60.60;52143.38;5072946;28;20206;-83
2023/10/31 04:12:29;;;;;;;0.97;0.47;;;;;;;-145.69;60.76;52175.06;5074762;28;20285;-82
2023/10/31 04:14:55;;;;;;;1.03;0.60;;;;;;;-145.69;60.86;52161.19;5073739;28;20228;-82
2023/10/31 04:17:22;;;;;;;2.10;0.47;;;;;;;-145.69;60.74;52171.09;5073581;28;20217;-82
2023/10/31 04:19:48;;;;;;;1.97;0.40;;;;;;;-145.69;61.01;52181.00;5074022;28;20214;-83
2023/10/31 04:22:19;;;;;;;0.40;0.33;;;;;;;-145.69;60.90;52167.13;5073339;28;20214;-83
2023/10/31 04:24:46;;;;;;;5.53;0.60;;;;;;;-145.69;61.21;52202.78;5072745;28;20187;-83
2023/10/31 04:27:12;;;;;;;1.07;0.60;;;;;;;-145.69;61.45;52169.13;5073830;28;20202;-82
2023/10/31 04:29:39;;;;;;;1.00;0.80;;;;;;;-145.69;61.12;52194.88;5075923;28;20206;-82
2023/10/31 04:32:07;;;;;;;0.40;0.40;;;;;;;-145.69;61.11;52175.06;5075764;28;20199;-83
2023/10/31 04:34:34;;;;;;;1.83;0.40;;;;;;;-145.69;61.17;52200.81;5075901;28;20269;-82
2023/10/31 04:37:00;;;;;;;0.57;0.57;;;;;;;-145.69;61.33;52181.00;5075651;28;20202;-83
2023/10/31 04:39:28;;;;;;;1.50;0.60;;;;;;;-145.69;61.16;52196.84;5077089;28;20209;-82
2023/10/31 04:41:55;;;;;;;0.97;0.60;;;;;;;-145.69;60.82;52186.94;5075630;28;20223;-82
2023/10/31 04:44:21;;;;;;;0.80;0.60;;;;;;;-145.69;61.21;52200.81;5075584;28;20250;-82
2023/10/31 04:46:50;;;;;;;0.50;0.50;;;;;;;-145.69;60.64;52206.75;5075679;28;20206;-83
2023/10/31 04:49:16;;;;;;;0.43;0.43;;;;;;;-145.69;60.90;52188.91;5075458;28;20202;-82
2023/10/31 04:51:43;;;;;;;1.37;0.50;;;;;;;-145.69;61.23;52157.25;5075279;28;20199;-83
2023/10/31 04:54:12;;;;;;;1.20;0.60;;;;;;;-145.69;60.26;52186.94;5075576;28;20234;-82
2023/10/31 04:56:40;;;;;;;0.40;0.40;;;;;;;-145.69;60.24;52200.81;5075520;28;20685;-83
2023/10/31 04:59:07;;;;;;;0.50;0.50;;;;;;;-145.69;59.95;52194.88;5075507;28;20293;-83
2023/10/31 05:01:36;;;;;;;0.40;0.40;;;;;;;-145.69;59.67;52157.25;5075145;28;20222;-83
2023/10/31 05:04:06;;;;;;;0.97;0.47;;;;;;;-145.69;59.59;52216.66;5076202;28;20203;-82
2023/10/31 05:06:32;;;;;;;2.67;0.70;;;;;;;-145.69;59.80;52190.91;5076067;28;20222;-83
2023/10/31 05:08:59;;;;;;;0.97;0.60;;;;;;;-145.69;60.16;52179.03;5075610;28;20206;-83
2023/10/31 05:11:30;;;;;;;2.43;0.67;;;;;;;-145.69;60.29;52198.81;5077152;28;20213;-81
2023/10/31 05:13:58;;;;;;;0.93;0.50;;;;;;;-145.69;60.39;52179.03;5077583;28;20650;-82
2023/10/31 05:16:27;;;;;;;1.40;0.60;;;;;;;-145.69;59.84;52226.53;5076382;28;20256;-83
2023/10/31 05:18:53;;;;;;;3.10;0.70;;;;;;;-145.69;60.45;52196.84;5077009;28;20282;-82
2023/10/31 05:21:21;;;;;;;0.80;0.70;;;;;;;-145.69;60.05;52220.59;5075129;28;20230;-83
2023/10/31 05:23:46;;;;;;;1.53;0.70;;;;;;;-145.69;59.88;52179.03;5074730;28;20253;-82
2023/10/31 05:26:13;;;;;;;0.70;0.57;;;;;;;-145.69;59.33;52212.69;5092891;28;20191;-82
2023/10/31 05:28:39;;;;;;;0.50;0.50;;;;;;;-145.69;59.46;52161.19;5096143;28;20213;-82
2023/10/31 05:31:07;;;;;;;1.07;0.50;;;;;;;-145.69;59.64;52204.75;5094741;28;20194;-82
2023/10/31 05:33:34;;;;;;;0.90;0.53;;;;;;;-145.69;59.74;52216.66;5095066;28;20595;-82
2023/10/31 05:36:00;;;;;;;0.70;0.70;;;;;;;-145.69;59.65;52186.94;5095028;28;20267;-82
2023/10/31 05:38:28;;;;;;;1.33;0.80;;;;;;;-145.69;60.41;52222.59;5094281;28;20672;-82
2023/10/31 05:40:54;;;;;;;0.93;0.60;;;;;;;-145.69;60.77;52198.81;5094429;28;20630;-82
2023/10/31 05:43:21;;;;;;;3.50;0.63;;;;;;;-145.69;60.90;52190.91;5094406;28;20343;-82
2023/10/31 05:45:47;;;;;;;2.10;0.90;;;;;;;-145.69;61.29;52165.16;5094445;28;20193;-81
2023/10/31 05:48:16;;;;;;;1.17;0.93;;;;;;;-145.69;61.08;52173.09;5094750;28;20202;-82
2023/10/31 05:50:43;;;;;;;1.10;0.60;;;;;;;-145.69;61.05;52216.66;5094654;28;20233;-82
2023/10/31 05:53:09;;;;;;;2.50;0.60;;;;;;;-145.69;60.16;52232.50;5094802;28;20198;-82
2023/10/31 05:55:39;;;;;;;1.55;0.70;;;;;;;-145.69;60.59;52179.03;5082347;28;20449;-82
2023/10/31 05:58:07;;;;;;;4.87;0.80;;;;;;;-145.69;60.47;52198.81;5070923;28;20203;-82
2023/10/31 06:00:33;;;;;;;2.73;0.50;;;;;;;-145.69;59.80;52186.94;5073718;28;20233;-82
2023/10/31 06:03:00;;;;;;;2.73;0.70;;;;;;;-145.69;60.00;52184.97;5074218;28;20201;-82
2023/10/31 06:05:27;;;;;;;1.23;0.50;;;;;;;-145.69;60.56;52214.66;5073915;28;20195;-82
2023/10/31 06:07:53;;;;;;;1.60;0.53;;;;;;;-145.69;60.20;52184.97;5073964;28;20650;-82
2023/10/31 06:10:21;;;;;;;1.20;0.57;;;;;;;-145.69;59.88;52188.91;5074272;28;20209;-82
2023/10/31 06:12:47;;;;;;;2.13;0.70;;;;;;;-145.69;60.38;52161.19;5073600;28;20234;-82
2023/10/31 06:15:14;;;;;;;2.50;0.80;;;;;;;-145.69;59.93;52198.81;5073365;28;20225;-82
2023/10/31 06:17:40;;;;;;;1.87;0.70;;;;;;;-145.69;60.21;52222.59;5073693;28;20673;-82
2023/10/31 06:20:09;;;;;;;3.27;0.77;;;;;;;-145.69;60.51;52202.78;5073691;28;20198;-82
2023/10/31 06:22:37;;;;;;;3.40;0.80;;;;;;;-145.69;60.40;52190.91;5073653;28;20672;-82
2023/10/31 06:25:03;;;;;;;0.97;0.60;;;;;;;-145.69;60.51;52196.84;5075597;28;20285;-83
2023/10/31 06:27:30;;;;;;;5.10;0.97;;;;;;;-145.69;60.29;52214.66;5082996;28;20198;-83
2023/10/31 06:29:56;;;;;;;1.27;0.77;;;;;;;-145.69;60.53;52222.59;5073411;28;20653;-82
2023/10/31 06:32:23;;;;;;;1.83;1.20;;;;;;;-145.69;61.03;52194.88;5073361;28;20206;-82
2023/10/31 06:34:49;;;;;;;5.20;1.50;;;;;;;-145.69;60.38;52194.88;5072827;28;20199;-82
2023/10/31 06:37:16;;;;;;;2.63;1.63;;;;;;;-145.69;60.20;52198.81;5073323;28;20199;-82
2023/10/31 06:39:44;;;;;;;1.50;1.10;;;;;;;-145.69;59.94;52204.75;5073448;28;20219;-81
2023/10/31 06:42:10;;;;;;;3.30;1.50;;;;;;;-145.69;60.47;52181.00;5072890;28;20226;-82
2023/10/31 06:44:37;;;;;;;6.00;1.13;;;;;;;-145.69;60.27;52218.63;5073140;28;20205;-82
2023/10/31 06:47:04;;;;;;;3.33;1.00;;;;;;;-145.69;60.59;52210.72;5073220;28;20203;-82
2023/10/31 06:49:30;;;;;;;4.83;1.00;;;;;;;-145.69;59.79;52200.81;5073276;28;20289;-83
2023/10/31 06:51:57;;;;;;;2.53;0.80;;;;;;;-145.69;59.65;52196.84;5071857;28;20195;-82
2023/10/31 06:54:24;;;;;;;1.93;1.10;;;;;;;-145.69;59.29;52216.66;5073756;28;20206;-82
2023/10/31 06:56:52;;;;;;;2.43;0.80;;;;;;;-145.69;59.70;52190.91;5093360;28;20291;-82
2023/10/31 06:59:19;;;;;;;1.60;0.90;;;;;;;-145.69;59.41;52192.88;5076791;28;20204;-82
2023/10/31 07:01:46;;;;;;;1.93;0.93;;;;;;;-145.69;59.36;52177.03;5072949;28;20578;-82
2023/10/31 07:04:13;;;;;;;2.40;1.20;;;;;;;-145.69;59.14;52194.88;5073077;28;20199;-82
2023/10/31 07:06:39;;;;;;;2.13;0.93;;;;;;;-145.69;59.16;52194.88;5072992;28;20555;-82
2023/10/31 07:09:07;;;;;;;3.00;1.30;;;;;;;-145.69;58.97;52198.81;5072919;28;20210;-82
2023/10/31 07:11:34;;;;;;;2.30;1.00;;;;;;;-145.69;58.60;52210.72;5072995;28;20198;-83
2023/10/31 07:14:03;;;;;;;4.53;1.30;;;;;;;-145.69;58.43;52194.88;5072756;28;20285;-82
2023/10/31 07:16:30;;;;;;;3.33;1.10;;;;;;;-145.69;58.35;52147.34;5072805;28;20234;-82
2023/10/31 07:18:56;;;;;;;3.90;0.93;;;;;;;-145.69;57.63;52196.84;5072923;28;20202;-83
2023/10/31 07:21:23;;;;;;;3.43;1.10;;;;;;;-145.69;57.71;52161.19;5072690;28;20233;-82
2023/10/31 07:23:49;;;;;;;1.73;0.90;;;;;;;-145.69;57.80;52198.81;5072482;28;20206;-82
2023/10/31 07:26:15;;;;;;;3.10;0.77;;;;;;;-145.69;56.83;52186.94;5072632;28;20195;-82
2023/10/31 07:28:43;;;;;;;3.53;0.77;;;;;;;-145.69;57.05;52198.81;5072985;28;20202;-83
2023/10/31 07:31:11;;;;;;;1.80;0.77;;;;;;;-145.69;56.52;52218.63;5072775;28;20203;-82
2023/10/31 07:33:37;;;;;;;1.30;0.73;;;;;;;-145.69;56.33;52190.91;5072991;28;20210;-82
2023/10/31 07:36:05;;;;;;;7.83;1.43;;;;;;;-145.69;55.69;52208.72;5072649;28;20194;-82
2023/10/31 07:38:31;;;;;;;6.70;1.00;;;;;;;-145.69;56.25;52153.28;5072665;28;20604;-82
2023/10/31 07:40:57;;;;;;;4.50;0.93;;;;;;;-145.69;56.18;52186.94;5072392;28;20780;-82
2023/10/31 07:43:24;;;;;;;1.00;0.80;;;;;;;-145.69;55.64;52186.94;5072898;28;20725;-82
2023/10/31 07:45:51;;;;;;;3.57;1.00;;;;;;;-145.69;55.39;52184.97;5072720;28;20277;-82
2023/10/31 07:48:19;;;;;;;6.10;1.07;;;;;;;-145.69;55.04;52131.50;5072406;28;20206;-82
2023/10/31 07:50:45;;;;;;;7.07;1.93;;;;;;;-145.69;55.08;52175.06;5080818;28;20247;-82
2023/10/31 07:53:12;;;;;;;3.73;1.50;;;;;;;-145.69;54.59;52163.19;5092835;28;20202;-82
2023/10/31 07:55:38;;;;;;;7.10;1.20;;;;;;;-145.69;54.96;52175.06;5082019;28;20195;-82
2023/10/31 07:58:05;;;;;;;5.40;1.20;;;;;;;-145.69;54.46;52163.19;5070065;28;20290;-82
2023/10/31 08:00:32;;;;;;;3.47;1.50;;;;;;;-145.69;54.51;52149.31;5072535;28;20289;-82
2023/10/31 08:02:59;;;;;;;5.10;1.50;;;;;;;-145.69;53.80;52113.66;5074874;28;20226;-81
2023/10/31 08:05:27;;;;;;;3.33;1.07;;;;;;;-145.69;53.26;52159.22;5076455;28;20202;-82
2023/10/31 08:07:54;;;;;;;5.22;1.10;;;;;;;-145.69;53.32;52179.03;5076336;28;20226;-82
2023/10/31 08:10:20;;;;;;;3.08;1.00;;;;;;;-145.69;52.71;52139.41;5076346;28;20206;-82
2023/10/31 08:12:47;;;;;;;6.38;1.13;;;;;;;-145.69;53.15;52163.19;5076202;28;20289;-82
2023/10/31 08:15:15;;;;;;;2.17;0.90;;;;;;;-145.69;52.42;52137.44;5076190;28;20207;-81
2023/10/31 08:17:41;;;;;;;3.00;1.15;;;;;;;-145.69;52.22;52186.94;5075981;28;20293;-82
2023/10/31 08:20:09;;;;;;;1.80;1.10;;;;;;;-145.69;52.37;52159.22;5076050;28;20203;-82
2023/10/31 08:22:37;;;;;;;3.20;1.08;;;;;;;-145.69;52.46;52149.31;5075617;28;20226;-82
2023/10/31 08:25:04;;;;;;;3.38;1.00;;;;;;;-145.69;52.54;52155.25;5076108;28;20209;-82
2023/10/31 08:27:30;;;;;;;2.75;1.00;;;;;;;-145.69;51.94;52163.19;5095711;28;20206;-82
2023/10/31 08:29:57;;;;;;;3.70;1.00;;;;;;;-145.69;51.56;52159.22;5095715;28;20194;-82
2023/10/31 08:32:24;;;;;;;4.55;0.85;;;;;;;-145.69;51.43;52147.34;5096153;28;20208;-82
2023/10/31 08:34:51;;;;;;;6.15;1.10;;;;;;;-145.69;51.42;52159.22;5096168;28;20206;-82
2023/10/31 08:37:17;;;;;;;1.92;0.60;;;;;;;-145.69;51.34;52184.97;5095754;28;20533;-82
2023/10/31 08:39:45;;;;;;;3.50;0.85;;;;;;;-145.69;50.58;52127.53;5095871;28;20280;-82
2023/10/31 08:42:12;;;;;;;6.57;0.82;;;;;;;-145.69;50.84;52147.34;5095680;28;20218;-82
2023/10/31 08:44:41;;;;;;;2.55;0.82;;;;;;;-145.69;50.90;52149.31;5095961;28;20285;-82
2023/10/31 08:47:07;;;;;;;4.68;0.80;;;;;;;-145.69;50.57;52165.16;5095498;28;20202;-82
2023/10/31 08:49:33;;;;;;;6.47;1.42;;;;;;;-145.69;50.51;52147.34;5096286;28;20209;-82
2023/10/31 08:52:01;;;;;;;2.88;1.20;;;;;;;-145.69;50.20;52135.47;5096571;28;20198;-83
2023/10/31 08:54:28;;;;;;;10.27;1.75;;;;;;;-145.69;49.63;52133.47;5095826;28;20740;-82
2023/10/31 08:56:56;;;;;;;10.10;2.95;;;;;;;-145.69;49.56;52139.41;5076290;28;20207;-82
2023/10/31 08:59:22;;;;;;;4.70;1.15;;;;;;;-145.69;49.16;52115.66;5075640;28;20199;-82
2023/10/31 09:01:49;;;;;;;3.78;1.00;;;;;;;-145.69;48.06;52115.66;5075263;28;20226;-82
2023/10/31 09:04:15;;;;;;;4.47;1.00;;;;;;;-145.69;48.06;52135.47;5079384;28;20202;-82
2023/10/31 09:06:42;;;;;;;1.42;0.70;;;;;;;-145.69;48.45;52093.88;5077214;28;20203;-82
2023/10/31 09:09:10;;;;;;;2.35;0.70;;;;;;;-145.69;48.08;52131.50;5076154;28;20203;-82
2023/10/31 09:11:36;;;;;;;7.00;0.90;;;;;;;-145.69;48.79;52121.59;5078359;28;20206;-81
2023/10/31 09:14:04;;;;;;;2.00;0.68;;;;;;;-145.69;48.54;52131.50;5078517;28;20684;-82
2023/10/31 09:16:31;;;;;;;5.40;0.77;;;;;;;-145.69;48.35;52105.75;5075701;28;20234;-82
2023/10/31 09:18:57;;;;;;;3.03;0.90;;;;;;;-145.69;48.31;52137.44;5075524;28;20201;-82
2023/10/31 09:21:24;;;;;;;5.07;1.10;;;;;;;-145.69;48.25;52115.66;5075157;28;20202;-82
2023/10/31 09:23:50;;;;;;;3.05;0.90;;;;;;;-145.69;47.76;52115.66;5062086;28;20210;-78
2023/10/31 09:26:17;;;;;;;2.22;0.63;;;;;;;-145.69;48.16;52119.63;5070572;28;20668;-79
2023/10/31 09:28:49;;;;;;;2.65;0.93;;;;;;;-145.69;48.42;52095.84;5076133;28;20745;-80
2023/10/31 09:31:17;;;;;;;3.60;0.93;;;;;;;-145.69;48.28;52119.63;5076014;28;20638;-81
2023/10/31 09:33:44;;;;;;;1.30;0.60;;;;;;;-145.69;48.77;52113.66;5074722;28;20207;-82
2023/10/31 09:36:11;;;;;;;1.23;0.65;;;;;;;-145.69;49.05;52123.56;5077233;28;20195;-82
2023/10/31 09:38:37;;;;;;;2.42;0.60;;;;;;;-145.69;47.79;52119.63;5075997;28;20240;-81
2023/10/31 09:41:05;;;;;;;2.78;0.80;;;;;;;-145.69;49.27;52123.56;5076826;28;20691;-81
2023/10/31 09:43:32;;;;;;;3.08;0.60;;;;;;;-145.69;49.66;52143.38;5075745;28;20238;-83
2023/10/31 09:46:03;;;;;;;1.60;0.68;;;;;;;-145.69;49.62;52127.53;5074978;28;20241;-82
2023/10/31 09:48:32;;;;;;;1.20;0.70;;;;;;;-145.69;49.20;52105.75;5088042;28;20221;-82
2023/10/31 09:50:59;;;;;;;1.77;0.60;;;;;;;-145.69;49.59;52107.72;5095373;28;20204;-83
2023/10/31 09:53:26;;;;;;;1.83;0.52;;;;;;;-145.69;49.46;52103.78;5079995;28;20198;-82
2023/10/31 09:55:56;;;;;;;0.98;0.50;;;;;;;-145.69;49.25;52107.72;5056151;28;20294;-83
2023/10/31 09:58:22;;;;;;;2.63;0.93;;;;;;;-145.69;48.95;52109.72;5066967;28;20657;-82
2023/10/31 10:00:49;;;;;;;1.45;0.63;;;;;;;-145.69;46.84;52087.94;5075422;28;20289;-82
2023/10/31 10:03:15;;;;;;;1.05;0.43;;;;;;;-145.69;46.56;52103.78;5075135;28;20635;-83
2023/10/31 10:05:44;;;;;;;3.05;0.60;;;;;;;-145.69;46.57;52115.66;5075230;28;20198;-82
2023/10/31 10:08:11;;;;;;;0.40;0.40;;;;;;;-145.69;46.12;52127.53;5073915;28;20291;-81
2023/10/31 10:10:37;;;;;;;0.75;0.40;;;;;;;-145.69;46.46;52111.69;5074045;28;20203;-81
2023/10/31 10:13:04;;;;;;;0.95;0.50;;;;;;;-145.69;46.60;52099.81;5074413;28;20213;-81
2023/10/31 10:15:30;;;;;;;1.55;0.32;;;;;;;-145.69;45.92;52082.00;5075885;28;20268;-81
2023/10/31 10:17:57;;;;;;;2.90;0.40;;;;;;;-145.69;46.78;52091.88;5079818;28;20475;-82
2023/10/31 10:20:23;;;;;;;1.30;0.50;;;;;;;-145.69;45.89;52095.84;5057254;28;20836;-82
2023/10/31 10:22:51;;;;;;;2.10;0.50;;;;;;;-145.69;46.15;52097.84;5075339;28;20232;-82
2023/10/31 10:25:19;;;;;;;1.15;0.50;;;;;;;-145.69;46.31;52123.56;5076451;28;20230;-82
2023/10/31 10:27:47;;;;;;;0.57;0.30;;;;;;;-145.69;46.36;52121.59;5073916;28;20457;-81
2023/10/31 10:30:14;;;;;;;0.40;0.40;;;;;;;-145.69;46.51;52113.66;5075664;28;20775;-83
2023/10/31 10:32:41;;;;;;;1.75;0.70;;;;;;;-145.69;46.89;52087.94;5075822;28;20672;-81
2023/10/31 10:35:09;;;;;;;2.90;0.70;;;;;;;-145.69;47.46;52111.69;5074160;28;20198;-82
2023/10/31 10:38:07;;;;;;;;;;;;;;;;;;;;;
2023/10/31 10:40:36;;;;;;;1.20;0.50;;;;;;;-145.69;47.48;52095.84;5074720;28;20198;-82
2023/10/31 10:43:08;;;;;;;1.60;0.70;;;;;;;-145.69;47.17;52101.78;5072630;28;20713;-81
2023/10/31 10:45:35;;;;;;;1.75;0.50;;;;;;;-145.69;47.76;52125.56;5074630;28;20232;-82
2023/10/31 10:48:10;;;;;;;0.50;0.30;;;;;;;-145.69;47.40;52103.78;5075832;28;20206;-84
2023/10/31 10:50:42;;;;;;;1.23;0.60;;;;;;;-145.69;46.86;52085.94;5075821;28;20226;-82
2023/10/31 10:56:40;;;;;;;0.52;0.30;;;;;;;-145.69;46.50;52085.94;4975002;28;20213;-83
2023/10/31 10:59:18;;;;;;;1.95;0.40;;;;;;;-145.69;44.66;52072.09;5053810;28;20246;-82
2023/10/31 11:01:47;;;;;;;0.93;0.40;;;;;;;-145.69;45.71;52095.84;5072665;28;20269;-80
2023/10/31 11:04:14;;;;;;;0.60;0.40;;;;;;;-145.69;44.92;52040.41;5073255;28;20203;-83
2023/10/31 11:06:42;;;;;;;2.00;0.35;;;;;;;-145.69;45.75;52093.88;5073877;28;20199;-82
2023/10/31 11:09:10;;;;;;;1.17;0.50;;;;;;;-145.69;45.01;52089.91;5073530;28;20217;-83
2023/10/31 11:11:39;;;;;;;1.30;0.40;;;;;;;-145.69;44.89;52072.09;5073279;28;20274;-83
2023/10/31 11:14:05;;;;;;;0.50;0.50;;;;;;;-145.69;46.51;52080.00;5073009;28;20206;-83
2023/10/31 11:16:38;;;;;;;0.38;0.38;;;;;;;-145.69;44.86;52072.09;5072775;28;20220;-81
2023/10/31 11:19:05;;;;;;;0.85;0.40;;;;;;;-145.69;45.20;52087.94;5072485;28;20194;-83
2023/10/31 11:21:32;;;;;;;1.20;0.50;;;;;;;-145.69;45.35;52087.94;5072931;28;20191;-82
2023/10/31 11:23:59;;;;;;;1.35;0.75;;;;;;;-145.69;44.81;52087.94;5072881;28;20231;-82